createdAt,value
2023-01-29T00:00:27.550Z,0.00
2023-01-29T00:01:28.255Z,0.00
2023-01-29T00:02:27.488Z,0.00
2023-01-29T00:03:28.024Z,0.00
2023-01-29T00:04:27.524Z,0.00
2023-01-29T00:05:28.598Z,0.00
2023-01-29T00:06:27.514Z,0.00
2023-01-29T00:07:27.523Z,0.00
2023-01-29T00:08:27.531Z,0.00
2023-01-29T00:09:27.479Z,0.00
2023-01-29T00:10:27.440Z,0.00
2023-01-29T00:11:27.440Z,0.00
2023-01-29T00:12:27.448Z,0.00
2023-01-29T00:13:27.540Z,0.00
2023-01-29T00:14:27.567Z,0.00
2023-01-29T00:15:27.468Z,0.00
2023-01-29T00:16:27.485Z,0.00
2023-01-29T00:17:27.487Z,0.00
2023-01-29T00:18:27.485Z,0.00
2023-01-29T00:19:27.499Z,0.00
2023-01-29T00:20:27.495Z,0.00
2023-01-29T00:21:27.529Z,0.00
2023-01-29T00:22:27.525Z,0.00
2023-01-29T00:23:27.153Z,0.00
2023-01-29T00:24:27.158Z,0.00
2023-01-29T00:25:27.215Z,0.00
2023-01-29T00:26:27.393Z,0.00
2023-01-29T00:27:27.343Z,0.00
2023-01-29T00:28:27.036Z,0.00
2023-01-29T00:29:27.457Z,0.00
2023-01-29T00:30:27.473Z,0.00
2023-01-29T00:31:27.701Z,0.00
2023-01-29T00:32:27.480Z,0.00
2023-01-29T00:33:27.490Z,0.00
2023-01-29T00:34:27.486Z,0.00
2023-01-29T00:35:27.743Z,0.00
2023-01-29T00:36:27.500Z,0.00
2023-01-29T00:37:27.508Z,0.00
2023-01-29T00:38:27.616Z,0.00
2023-01-29T00:39:33.764Z,0.00
2023-01-29T00:40:28.042Z,0.00
2023-01-29T00:41:27.421Z,0.00
2023-01-29T00:42:27.442Z,0.00
2023-01-29T00:43:27.439Z,0.00
2023-01-29T00:44:27.443Z,0.00
2023-01-29T00:45:27.260Z,0.00
2023-01-29T00:46:27.496Z,0.00
2023-01-29T00:47:27.460Z,0.00
2023-01-29T00:48:27.471Z,0.00
2023-01-29T00:49:27.477Z,0.00
2023-01-29T00:50:27.181Z,0.00
2023-01-29T00:51:27.471Z,0.00
2023-01-29T00:52:26.747Z,0.00
2023-01-29T00:53:26.789Z,0.00
2023-01-29T00:54:26.794Z,0.00
2023-01-29T00:55:26.899Z,0.00
2023-01-29T00:56:26.908Z,0.00
2023-01-29T00:57:27.045Z,0.00
2023-01-29T00:58:27.098Z,0.00
2023-01-29T00:59:27.044Z,0.00
2023-01-29T01:00:27.368Z,0.00
2023-01-29T01:01:27.243Z,0.00
2023-01-29T01:02:26.856Z,0.00
2023-01-29T01:03:26.682Z,0.00
2023-01-29T01:04:26.817Z,0.00
2023-01-29T01:05:27.413Z,0.00
2023-01-29T01:06:26.786Z,0.00
2023-01-29T01:07:27.463Z,0.00
2023-01-29T01:08:26.688Z,0.00
2023-01-29T01:09:27.274Z,0.00
2023-01-29T01:10:26.486Z,0.00
2023-01-29T01:11:26.493Z,0.00
2023-01-29T01:12:26.594Z,0.00
2023-01-29T01:13:26.532Z,0.00
2023-01-29T01:14:30.691Z,0.00
2023-01-29T01:15:26.436Z,0.00
2023-01-29T01:16:26.504Z,0.00
2023-01-29T01:17:26.435Z,0.00
2023-01-29T01:18:27.121Z,0.00
2023-01-29T01:19:27.463Z,0.00
2023-01-29T01:20:26.552Z,0.00
2023-01-29T01:21:26.357Z,0.00
2023-01-29T01:22:26.500Z,0.00
2023-01-29T01:23:26.472Z,0.00
2023-01-29T01:24:26.607Z,0.00
2023-01-29T01:25:26.600Z,0.00
2023-01-29T01:26:26.333Z,0.00
2023-01-29T01:27:26.578Z,0.00
2023-01-29T01:28:26.503Z,0.00
2023-01-29T01:29:26.595Z,0.00
2023-01-29T01:30:26.572Z,0.00
2023-01-29T01:31:26.363Z,0.00
2023-01-29T01:32:26.370Z,0.00
2023-01-29T01:33:26.490Z,0.00
2023-01-29T01:34:26.429Z,0.00
2023-01-29T01:35:26.389Z,0.00
2023-01-29T01:36:30.614Z,0.00
2023-01-29T01:37:26.531Z,0.00
2023-01-29T01:38:26.832Z,0.00
2023-01-29T01:39:26.551Z,0.00
2023-01-29T01:40:26.582Z,0.00
2023-01-29T01:41:26.188Z,0.00
2023-01-29T01:42:26.660Z,0.00
2023-01-29T01:43:27.718Z,0.00
2023-01-29T01:44:26.508Z,0.00
2023-01-29T01:45:26.310Z,0.00
2023-01-29T01:46:26.137Z,0.00
2023-01-29T01:47:26.028Z,0.00
2023-01-29T01:48:26.420Z,0.00
2023-01-29T01:49:26.507Z,0.00
2023-01-29T01:50:26.606Z,0.00
2023-01-29T01:51:26.548Z,0.00
2023-01-29T01:52:26.446Z,0.00
2023-01-29T01:53:26.125Z,0.00
2023-01-29T01:54:26.109Z,0.00
2023-01-29T01:55:26.289Z,0.00
2023-01-29T01:56:26.155Z,0.00
2023-01-29T01:57:26.085Z,0.00
2023-01-29T01:58:26.275Z,0.00
2023-01-29T01:59:25.925Z,0.00
2023-01-29T02:00:26.497Z,0.00
2023-01-29T02:01:26.698Z,0.00
2023-01-29T02:02:26.539Z,0.00
2023-01-29T02:03:26.542Z,0.00
2023-01-29T02:04:26.512Z,0.00
2023-01-29T02:05:26.424Z,0.00
2023-01-29T02:06:26.435Z,0.00
2023-01-29T02:07:26.449Z,0.00
2023-01-29T02:08:26.449Z,0.00
2023-01-29T02:09:26.461Z,0.00
2023-01-29T02:10:26.503Z,0.00
2023-01-29T02:11:26.464Z,0.00
2023-01-29T02:12:26.501Z,0.00
2023-01-29T02:13:25.693Z,0.00
2023-01-29T02:14:26.076Z,0.00
2023-01-29T02:15:26.512Z,0.00
2023-01-29T02:16:25.781Z,0.00
2023-01-29T02:17:26.413Z,0.00
2023-01-29T02:18:26.539Z,0.00
2023-01-29T02:19:26.471Z,0.00
2023-01-29T02:20:26.453Z,0.00
2023-01-29T02:21:25.599Z,0.00
2023-01-29T02:22:25.686Z,0.00
2023-01-29T02:23:25.730Z,0.00
2023-01-29T02:24:25.784Z,0.00
2023-01-29T02:25:25.875Z,0.00
2023-01-29T02:26:25.844Z,0.00
2023-01-29T02:27:25.960Z,0.00
2023-01-29T02:28:26.467Z,0.00
2023-01-29T02:29:26.129Z,0.00
2023-01-29T02:30:26.068Z,0.00
2023-01-29T02:31:26.127Z,0.00
2023-01-29T02:32:26.193Z,0.00
2023-01-29T02:33:26.199Z,0.00
2023-01-29T02:34:25.617Z,0.00
2023-01-29T02:35:26.193Z,0.00
2023-01-29T02:36:25.786Z,0.00
2023-01-29T02:37:25.438Z,0.00
2023-01-29T02:38:26.164Z,0.00
2023-01-29T02:39:26.321Z,0.00
2023-01-29T02:40:26.355Z,0.00
2023-01-29T02:41:25.524Z,0.00
2023-01-29T02:42:26.445Z,0.00
2023-01-29T02:43:26.275Z,0.00
2023-01-29T02:44:26.104Z,0.00
2023-01-29T02:45:26.398Z,0.00
2023-01-29T02:46:25.279Z,0.00
2023-01-29T02:47:26.053Z,0.00
2023-01-29T02:48:25.804Z,0.00
2023-01-29T02:49:26.151Z,0.00
2023-01-29T02:50:26.581Z,0.00
2023-01-29T02:51:25.560Z,0.00
2023-01-29T02:52:25.217Z,0.00
2023-01-29T02:53:25.295Z,0.00
2023-01-29T02:54:25.441Z,0.00
2023-01-29T02:55:25.171Z,0.00
2023-01-29T02:56:25.434Z,0.00
2023-01-29T02:57:25.378Z,0.00
2023-01-29T02:58:25.132Z,0.00
2023-01-29T02:59:25.282Z,0.00
2023-01-29T03:00:25.777Z,0.00
2023-01-29T03:01:25.129Z,0.00
2023-01-29T03:02:25.091Z,0.00
2023-01-29T03:03:25.804Z,0.00
2023-01-29T03:04:25.358Z,0.00
2023-01-29T03:05:25.643Z,0.00
2023-01-29T03:06:25.777Z,0.00
2023-01-29T03:07:26.261Z,0.00
2023-01-29T03:08:25.829Z,0.00
2023-01-29T03:09:25.861Z,0.00
2023-01-29T03:10:24.990Z,0.00
2023-01-29T03:11:25.069Z,0.00
2023-01-29T03:12:25.131Z,0.00
2023-01-29T03:13:26.031Z,0.00
2023-01-29T03:14:25.908Z,0.00
2023-01-29T03:15:25.227Z,0.00
2023-01-29T03:16:25.911Z,0.00
2023-01-29T03:17:25.737Z,0.00
2023-01-29T03:18:25.658Z,0.00
2023-01-29T03:19:25.821Z,0.00
2023-01-29T03:20:24.892Z,0.00
2023-01-29T03:21:24.868Z,0.00
2023-01-29T03:22:24.981Z,0.00
2023-01-29T03:23:25.013Z,0.00
2023-01-29T03:24:25.110Z,0.00
2023-01-29T03:25:25.121Z,0.00
2023-01-29T03:26:25.029Z,0.00
2023-01-29T03:27:25.217Z,0.00
2023-01-29T03:28:25.222Z,0.00
2023-01-29T03:29:25.326Z,0.00
2023-01-29T03:30:25.335Z,0.00
2023-01-29T03:31:25.503Z,0.00
2023-01-29T03:32:25.445Z,0.00
2023-01-29T03:33:24.770Z,0.00
2023-01-29T03:34:25.060Z,0.00
2023-01-29T03:35:25.596Z,0.00
2023-01-29T03:36:25.443Z,0.00
2023-01-29T03:37:24.974Z,0.00
2023-01-29T03:38:25.512Z,0.00
2023-01-29T03:39:25.426Z,0.00
2023-01-29T03:40:25.315Z,0.00
2023-01-29T03:41:25.483Z,0.00
2023-01-29T03:42:24.592Z,0.00
2023-01-29T03:43:25.293Z,0.00
2023-01-29T03:44:25.450Z,0.00
2023-01-29T03:45:25.131Z,0.00
2023-01-29T03:46:25.252Z,0.00
2023-01-29T03:47:26.022Z,0.00
2023-01-29T03:48:24.903Z,0.00
2023-01-29T03:49:25.502Z,0.00
2023-01-29T03:50:24.539Z,0.00
2023-01-29T03:51:24.582Z,0.00
2023-01-29T03:52:24.451Z,0.00
2023-01-29T03:53:24.680Z,0.00
2023-01-29T03:54:24.576Z,0.00
2023-01-29T03:55:24.877Z,0.00
2023-01-29T03:56:24.570Z,0.00
2023-01-29T03:57:24.891Z,0.00
2023-01-29T03:58:24.911Z,0.00
2023-01-29T03:59:25.009Z,0.00
2023-01-29T04:00:25.032Z,0.00
2023-01-29T04:01:24.354Z,0.00
2023-01-29T04:02:24.321Z,0.00
2023-01-29T04:03:25.157Z,0.00
2023-01-29T04:04:24.355Z,0.00
2023-01-29T04:05:24.289Z,0.00
2023-01-29T04:06:24.258Z,0.00
2023-01-29T04:07:24.245Z,0.00
2023-01-29T04:08:24.248Z,0.00
2023-01-29T04:09:24.207Z,0.00
2023-01-29T04:10:24.226Z,0.00
2023-01-29T04:11:24.188Z,0.00
2023-01-29T04:12:24.266Z,0.00
2023-01-29T04:13:24.167Z,0.00
2023-01-29T04:14:24.166Z,0.00
2023-01-29T04:15:24.257Z,0.00
2023-01-29T04:16:24.303Z,0.00
2023-01-29T04:17:24.147Z,0.00
2023-01-29T04:18:24.122Z,0.00
2023-01-29T04:19:24.116Z,0.00
2023-01-29T04:20:24.101Z,0.00
2023-01-29T04:21:24.070Z,0.00
2023-01-29T04:22:24.057Z,0.00
2023-01-29T04:23:24.235Z,0.00
2023-01-29T04:24:24.111Z,0.00
2023-01-29T04:25:24.036Z,0.00
2023-01-29T04:26:24.257Z,0.00
2023-01-29T04:27:24.246Z,0.00
2023-01-29T04:28:23.967Z,0.00
2023-01-29T04:29:23.967Z,0.00
2023-01-29T04:30:24.027Z,0.00
2023-01-29T04:31:24.054Z,0.00
2023-01-29T04:32:23.931Z,0.00
2023-01-29T04:33:23.946Z,0.00
2023-01-29T04:34:24.245Z,0.00
2023-01-29T04:35:23.935Z,0.00
2023-01-29T04:36:24.261Z,0.00
2023-01-29T04:37:24.252Z,0.00
2023-01-29T04:38:23.842Z,0.00
2023-01-29T04:39:23.850Z,0.00
2023-01-29T04:40:23.865Z,0.00
2023-01-29T04:41:24.269Z,0.00
2023-01-29T04:42:23.799Z,0.00
2023-01-29T04:43:23.771Z,0.00
2023-01-29T04:44:24.253Z,0.00
2023-01-29T04:45:24.250Z,0.00
2023-01-29T04:46:24.252Z,0.00
2023-01-29T04:47:23.750Z,0.00
2023-01-29T04:48:23.832Z,0.00
2023-01-29T04:49:23.898Z,0.00
2023-01-29T04:50:23.867Z,0.00
2023-01-29T04:51:23.941Z,0.00
2023-01-29T04:52:23.986Z,0.00
2023-01-29T04:53:24.029Z,0.00
2023-01-29T04:54:23.655Z,0.00
2023-01-29T04:55:23.724Z,0.00
2023-01-29T04:56:23.793Z,0.00
2023-01-29T04:57:23.843Z,0.00
2023-01-29T04:58:23.602Z,0.00
2023-01-29T04:59:23.660Z,0.00
2023-01-29T05:00:23.697Z,0.00
2023-01-29T05:01:23.778Z,0.00
2023-01-29T05:02:23.528Z,0.00
2023-01-29T05:03:23.533Z,0.00
2023-01-29T05:04:23.677Z,0.00
2023-01-29T05:05:23.707Z,0.00
2023-01-29T05:06:23.481Z,0.00
2023-01-29T05:07:23.818Z,0.00
2023-01-29T05:08:23.878Z,0.00
2023-01-29T05:09:23.453Z,0.00
2023-01-29T05:10:23.985Z,0.00
2023-01-29T05:11:24.064Z,0.00
2023-01-29T05:12:24.123Z,0.00
2023-01-29T05:13:24.186Z,0.00
2023-01-29T05:14:24.238Z,0.00
2023-01-29T05:15:23.437Z,0.00
2023-01-29T05:16:23.404Z,0.00
2023-01-29T05:17:23.429Z,0.00
2023-01-29T05:18:23.371Z,0.00
2023-01-29T05:19:23.582Z,0.00
2023-01-29T05:20:23.606Z,0.00
2023-01-29T05:21:23.656Z,0.00
2023-01-29T05:22:23.297Z,0.00
2023-01-29T05:23:23.273Z,0.00
2023-01-29T05:24:23.346Z,0.00
2023-01-29T05:25:23.292Z,0.00
2023-01-29T05:26:23.223Z,0.00
2023-01-29T05:27:23.231Z,0.00
2023-01-29T05:28:23.200Z,0.00
2023-01-29T05:29:24.069Z,0.00
2023-01-29T05:30:23.218Z,0.00
2023-01-29T05:31:23.249Z,0.00
2023-01-29T05:32:24.057Z,0.00
2023-01-29T05:33:23.157Z,0.00
2023-01-29T05:34:24.275Z,0.00
2023-01-29T05:35:24.006Z,0.00
2023-01-29T05:36:24.242Z,0.00
2023-01-29T05:37:23.189Z,0.00
2023-01-29T05:38:23.089Z,0.00
2023-01-29T05:39:23.064Z,0.00
2023-01-29T05:40:23.786Z,0.00
2023-01-29T05:41:23.039Z,0.00
2023-01-29T05:42:23.842Z,0.00
2023-01-29T05:43:23.778Z,0.00
2023-01-29T05:44:23.908Z,0.00
2023-01-29T05:45:23.019Z,0.00
2023-01-29T05:46:23.102Z,0.00
2023-01-29T05:47:22.958Z,0.00
2023-01-29T05:48:22.969Z,0.00
2023-01-29T05:49:22.946Z,0.00
2023-01-29T05:50:23.363Z,0.00
2023-01-29T05:51:23.357Z,0.00
2023-01-29T05:52:22.926Z,0.00
2023-01-29T05:53:22.897Z,0.00
2023-01-29T05:54:23.527Z,0.00
2023-01-29T05:55:22.894Z,0.00
2023-01-29T05:56:22.857Z,0.00
2023-01-29T05:57:22.840Z,0.00
2023-01-29T05:58:22.825Z,0.00
2023-01-29T05:59:23.744Z,0.00
2023-01-29T06:00:22.844Z,0.00
2023-01-29T06:01:22.796Z,0.00
2023-01-29T06:02:23.720Z,0.00
2023-01-29T06:03:22.774Z,0.00
2023-01-29T06:04:23.560Z,0.00
2023-01-29T06:05:23.895Z,0.00
2023-01-29T06:06:23.594Z,0.00
2023-01-29T06:07:22.804Z,0.00
2023-01-29T06:08:22.696Z,0.00
2023-01-29T06:09:22.686Z,0.00
2023-01-29T06:10:23.478Z,0.00
2023-01-29T06:11:23.630Z,0.00
2023-01-29T06:12:24.141Z,0.00
2023-01-29T06:13:23.793Z,0.00
2023-01-29T06:14:22.624Z,0.00
2023-01-29T06:15:22.624Z,0.00
2023-01-29T06:16:22.749Z,0.00
2023-01-29T06:17:22.772Z,0.00
2023-01-29T06:18:22.839Z,0.00
2023-01-29T06:19:22.881Z,0.00
2023-01-29T06:20:22.574Z,0.00
2023-01-29T06:21:23.052Z,0.00
2023-01-29T06:22:23.144Z,0.00
2023-01-29T06:23:23.140Z,0.00
2023-01-29T06:24:22.524Z,0.00
2023-01-29T06:25:23.219Z,0.00
2023-01-29T06:26:23.201Z,0.00
2023-01-29T06:27:23.227Z,0.00
2023-01-29T06:28:23.271Z,0.00
2023-01-29T06:29:23.188Z,0.00
2023-01-29T06:30:22.439Z,0.00
2023-01-29T06:31:37.219Z,0.00
2023-01-29T06:32:23.703Z,0.00
2023-01-29T06:33:22.406Z,0.00
2023-01-29T06:34:23.208Z,0.00
2023-01-29T06:35:23.109Z,1.00
2023-01-29T06:36:23.947Z,0.00
2023-01-29T06:37:22.541Z,0.00
2023-01-29T06:38:23.027Z,0.00
2023-01-29T06:39:22.459Z,1.00
2023-01-29T06:40:23.144Z,1.00
2023-01-29T06:41:23.056Z,1.00
2023-01-29T06:42:23.208Z,0.00
2023-01-29T06:43:22.307Z,0.00
2023-01-29T06:44:22.237Z,0.00
2023-01-29T06:45:22.316Z,0.00
2023-01-29T06:46:22.486Z,4.00
2023-01-29T06:47:22.177Z,2.00
2023-01-29T06:48:22.300Z,1.00
2023-01-29T06:49:22.121Z,1.00
2023-01-29T06:50:22.666Z,2.00
2023-01-29T06:51:22.831Z,2.00
2023-01-29T06:52:22.775Z,3.00
2023-01-29T06:53:22.065Z,3.00
2023-01-29T06:54:22.839Z,6.00
2023-01-29T06:55:22.039Z,5.00
2023-01-29T06:56:22.057Z,7.00
2023-01-29T06:57:22.025Z,8.00
2023-01-29T06:58:22.023Z,11.00
2023-01-29T06:59:22.006Z,16.00
2023-01-29T07:00:21.990Z,16.00
2023-01-29T07:01:35.212Z,22.00
2023-01-29T07:02:23.375Z,22.00
2023-01-29T07:03:22.779Z,28.00
2023-01-29T07:04:21.923Z,25.00
2023-01-29T07:05:22.829Z,33.00
2023-01-29T07:06:21.946Z,36.00
2023-01-29T07:07:22.185Z,38.00
2023-01-29T07:08:22.023Z,39.00
2023-01-29T07:09:22.683Z,42.00
2023-01-29T07:10:22.820Z,46.00
2023-01-29T07:11:21.887Z,48.00
2023-01-29T07:12:21.821Z,53.00
2023-01-29T07:13:21.901Z,57.00
2023-01-29T07:14:21.927Z,63.00
2023-01-29T07:15:21.973Z,64.00
2023-01-29T07:16:22.073Z,68.00
2023-01-29T07:17:21.791Z,72.00
2023-01-29T07:18:21.772Z,81.00
2023-01-29T07:19:21.897Z,87.00
2023-01-29T07:20:21.961Z,91.00
2023-01-29T07:21:21.744Z,92.00
2023-01-29T07:22:21.917Z,93.00
2023-01-29T07:23:21.832Z,98.00
2023-01-29T07:24:22.074Z,105.00
2023-01-29T07:25:21.968Z,110.00
2023-01-29T07:26:21.682Z,108.00
2023-01-29T07:27:22.041Z,106.00
2023-01-29T07:28:21.660Z,109.00
2023-01-29T07:29:24.471Z,110.00
2023-01-29T07:30:25.894Z,120.00
2023-01-29T07:31:22.359Z,124.00
2023-01-29T07:32:22.183Z,126.00
2023-01-29T07:33:21.973Z,129.00
2023-01-29T07:34:22.317Z,131.00
2023-01-29T07:35:22.380Z,130.00
2023-01-29T07:36:22.338Z,131.00
2023-01-29T07:37:22.282Z,135.00
2023-01-29T07:38:22.573Z,137.00
2023-01-29T07:39:22.394Z,142.00
2023-01-29T07:40:22.372Z,149.00
2023-01-29T07:41:21.726Z,143.00
2023-01-29T07:42:21.525Z,143.00
2023-01-29T07:43:21.591Z,145.00
2023-01-29T07:44:21.425Z,150.00
2023-01-29T07:45:21.667Z,154.00
2023-01-29T07:46:21.767Z,167.00
2023-01-29T07:47:21.794Z,176.00
2023-01-29T07:48:21.857Z,189.00
2023-01-29T07:49:22.019Z,201.00
2023-01-29T07:50:21.563Z,203.00
2023-01-29T07:51:22.084Z,218.00
2023-01-29T07:52:22.515Z,227.00
2023-01-29T07:53:22.184Z,244.00
2023-01-29T07:54:22.187Z,253.00
2023-01-29T07:55:22.014Z,261.00
2023-01-29T07:56:21.388Z,278.00
2023-01-29T07:57:22.156Z,286.00
2023-01-29T07:58:22.072Z,287.00
2023-01-29T07:59:22.025Z,293.00
2023-01-29T08:00:21.486Z,301.00
2023-01-29T08:01:22.078Z,307.00
2023-01-29T08:02:21.994Z,303.00
2023-01-29T08:03:22.070Z,299.00
2023-01-29T08:04:22.003Z,290.00
2023-01-29T08:05:21.891Z,283.00
2023-01-29T08:06:22.050Z,281.00
2023-01-29T08:07:22.005Z,286.00
2023-01-29T08:08:22.183Z,285.00
2023-01-29T08:09:21.107Z,289.00
2023-01-29T08:10:21.192Z,295.00
2023-01-29T08:11:21.173Z,298.00
2023-01-29T08:12:21.290Z,300.00
2023-01-29T08:13:21.196Z,304.00
2023-01-29T08:14:21.239Z,312.00
2023-01-29T08:15:21.445Z,322.00
2023-01-29T08:16:21.477Z,341.00
2023-01-29T08:17:21.540Z,350.00
2023-01-29T08:18:21.150Z,362.00
2023-01-29T08:19:21.538Z,369.00
2023-01-29T08:20:21.600Z,368.00
2023-01-29T08:21:21.681Z,383.00
2023-01-29T08:22:21.708Z,377.00
2023-01-29T08:23:21.705Z,382.00
2023-01-29T08:24:22.069Z,393.00
2023-01-29T08:25:21.615Z,408.00
2023-01-29T08:26:21.737Z,415.00
2023-01-29T08:27:20.987Z,424.00
2023-01-29T08:28:21.736Z,480.00
2023-01-29T08:29:21.651Z,547.00
2023-01-29T08:30:25.984Z,627.00
2023-01-29T08:31:21.760Z,714.00
2023-01-29T08:32:21.725Z,788.00
2023-01-29T08:33:29.779Z,833.00
2023-01-29T08:34:22.355Z,858.00
2023-01-29T08:35:21.741Z,881.00
2023-01-29T08:36:21.484Z,886.00
2023-01-29T08:37:21.619Z,897.00
2023-01-29T08:38:21.552Z,919.00
2023-01-29T08:39:22.067Z,931.00
2023-01-29T08:40:20.952Z,961.00
2023-01-29T08:41:20.734Z,988.00
2023-01-29T08:42:20.677Z,991.00
2023-01-29T08:43:20.831Z,994.00
2023-01-29T08:44:20.910Z,996.00
2023-01-29T08:45:20.946Z,1017.00
2023-01-29T08:46:20.766Z,1039.00
2023-01-29T08:47:21.195Z,1018.00
2023-01-29T08:48:20.756Z,1005.00
2023-01-29T08:49:21.163Z,990.00
2023-01-29T08:50:21.222Z,970.00
2023-01-29T08:51:21.296Z,969.00
2023-01-29T08:52:21.331Z,970.00
2023-01-29T08:53:21.380Z,956.00
2023-01-29T08:54:21.315Z,946.00
2023-01-29T08:55:21.540Z,927.00
2023-01-29T08:56:21.353Z,921.00
2023-01-29T08:57:21.286Z,915.00
2023-01-29T08:58:21.422Z,887.00
2023-01-29T08:59:21.318Z,849.00
2023-01-29T09:00:21.241Z,814.00
2023-01-29T09:01:21.422Z,812.00
2023-01-29T09:02:20.929Z,818.00
2023-01-29T09:03:21.970Z,824.00
2023-01-29T09:04:21.351Z,811.00
2023-01-29T09:05:21.093Z,804.00
2023-01-29T09:06:21.243Z,803.00
2023-01-29T09:07:21.347Z,817.00
2023-01-29T09:08:21.568Z,808.00
2023-01-29T09:09:20.328Z,799.00
2023-01-29T09:10:20.422Z,811.00
2023-01-29T09:11:20.825Z,838.00
2023-01-29T09:12:20.486Z,864.00
2023-01-29T09:13:20.537Z,887.00
2023-01-29T09:14:20.569Z,899.00
2023-01-29T09:15:20.368Z,908.00
2023-01-29T09:16:20.514Z,935.00
2023-01-29T09:17:20.506Z,992.00
2023-01-29T09:18:20.248Z,1092.00
2023-01-29T09:19:20.485Z,1160.00
2023-01-29T09:20:20.992Z,1194.00
2023-01-29T09:21:20.672Z,1206.00
2023-01-29T09:22:20.552Z,1198.00
2023-01-29T09:23:20.289Z,1228.00
2023-01-29T09:24:20.376Z,1259.00
2023-01-29T09:25:20.143Z,1290.00
2023-01-29T09:26:20.458Z,1321.00
2023-01-29T09:27:20.479Z,1341.00
2023-01-29T09:28:20.542Z,1370.00
2023-01-29T09:29:20.575Z,1397.00
2023-01-29T09:30:20.764Z,1412.00
2023-01-29T09:31:20.569Z,1426.00
2023-01-29T09:32:43.959Z,1429.00
2023-01-29T09:33:21.173Z,1448.00
2023-01-29T09:34:20.888Z,1467.00
2023-01-29T09:35:20.523Z,1531.00
2023-01-29T09:36:21.224Z,1625.00
2023-01-29T09:37:21.913Z,1684.00
2023-01-29T09:38:20.563Z,1717.00
2023-01-29T09:39:19.960Z,1751.00
2023-01-29T09:40:20.005Z,1822.00
2023-01-29T09:41:20.663Z,1963.00
2023-01-29T09:42:20.063Z,2028.00
2023-01-29T09:43:20.181Z,2157.00
2023-01-29T09:44:19.938Z,2250.00
2023-01-29T09:45:20.595Z,2297.00
2023-01-29T09:46:20.504Z,2367.00
2023-01-29T09:47:20.478Z,2392.00
2023-01-29T09:48:19.887Z,2441.00
2023-01-29T09:49:20.525Z,2532.00
2023-01-29T09:50:20.574Z,2528.00
2023-01-29T09:51:20.607Z,2553.00
2023-01-29T09:52:20.685Z,2625.00
2023-01-29T09:53:20.739Z,2632.00
2023-01-29T09:54:20.644Z,2599.00
2023-01-29T09:55:20.390Z,2595.00
2023-01-29T09:56:20.915Z,2516.00
2023-01-29T09:57:24.761Z,2426.00
2023-01-29T09:58:20.020Z,2400.00
2023-01-29T09:59:19.922Z,2361.00
2023-01-29T10:00:20.593Z,2309.00
2023-01-29T10:01:20.760Z,2241.00
2023-01-29T10:02:20.506Z,2164.00
2023-01-29T10:03:20.137Z,2109.00
2023-01-29T10:04:20.104Z,2024.00
2023-01-29T10:05:20.829Z,1873.00
2023-01-29T10:06:19.602Z,1815.00
2023-01-29T10:07:20.477Z,1853.00
2023-01-29T10:08:20.328Z,1880.00
2023-01-29T10:09:19.997Z,1800.00
2023-01-29T10:10:19.657Z,1859.00
2023-01-29T10:11:19.722Z,1975.00
2023-01-29T10:12:19.800Z,1943.00
2023-01-29T10:13:19.948Z,1982.00
2023-01-29T10:14:19.869Z,2040.00
2023-01-29T10:15:20.022Z,2093.00
2023-01-29T10:16:20.117Z,2005.00
2023-01-29T10:17:20.086Z,1994.00
2023-01-29T10:18:20.141Z,1954.00
2023-01-29T10:19:20.120Z,2043.00
2023-01-29T10:20:20.227Z,2060.00
2023-01-29T10:21:20.373Z,2248.00
2023-01-29T10:22:20.255Z,2290.00
2023-01-29T10:23:19.732Z,2277.00
2023-01-29T10:24:20.399Z,2371.00
2023-01-29T10:25:20.503Z,2404.00
2023-01-29T10:26:20.477Z,2392.00
2023-01-29T10:27:20.022Z,2414.00
2023-01-29T10:28:19.790Z,2439.00
2023-01-29T10:29:20.071Z,2577.00
2023-01-29T10:30:20.486Z,2545.00
2023-01-29T10:31:20.222Z,2463.00
2023-01-29T10:32:20.065Z,2579.00
2023-01-29T10:33:20.234Z,2639.00
2023-01-29T10:34:19.363Z,2594.00
2023-01-29T10:35:19.390Z,2583.00
2023-01-29T10:36:20.609Z,2583.00
2023-01-29T10:37:20.101Z,2559.00
2023-01-29T10:38:19.206Z,2594.00
2023-01-29T10:39:20.327Z,2681.00
2023-01-29T10:40:23.495Z,2744.00
2023-01-29T10:41:19.414Z,2752.00
2023-01-29T10:42:19.491Z,2720.00
2023-01-29T10:43:19.451Z,2720.00
2023-01-29T10:44:19.503Z,2738.00
2023-01-29T10:45:19.908Z,2656.00
2023-01-29T10:46:19.205Z,2571.00
2023-01-29T10:47:19.718Z,2587.00
2023-01-29T10:48:19.558Z,2568.00
2023-01-29T10:49:19.875Z,2528.00
2023-01-29T10:50:19.546Z,2528.00
2023-01-29T10:51:19.068Z,2495.00
2023-01-29T10:52:19.105Z,2524.00
2023-01-29T10:53:19.381Z,2507.00
2023-01-29T10:54:19.741Z,2581.00
2023-01-29T10:55:19.241Z,2637.00
2023-01-29T10:56:23.107Z,2605.00
2023-01-29T10:57:19.831Z,2446.00
2023-01-29T10:58:20.451Z,2308.00
2023-01-29T10:59:19.780Z,2370.00
2023-01-29T11:00:19.483Z,2481.00
2023-01-29T11:01:19.883Z,2587.00
2023-01-29T11:02:19.825Z,2570.00
2023-01-29T11:03:27.534Z,2512.00
2023-01-29T11:04:20.610Z,2563.00
2023-01-29T11:05:19.726Z,2618.00
2023-01-29T11:06:19.625Z,2505.00
2023-01-29T11:07:18.873Z,2544.00
2023-01-29T11:08:18.860Z,2663.00
2023-01-29T11:09:18.941Z,2683.00
2023-01-29T11:10:19.184Z,2607.00
2023-01-29T11:11:19.065Z,2382.00
2023-01-29T11:12:20.940Z,2091.00
2023-01-29T11:13:19.183Z,2054.00
2023-01-29T11:14:19.195Z,2163.00
2023-01-29T11:15:19.050Z,2197.00
2023-01-29T11:16:19.307Z,2405.00
2023-01-29T11:17:19.381Z,2225.00
2023-01-29T11:18:18.947Z,2155.00
2023-01-29T11:19:23.589Z,2177.00
2023-01-29T11:20:19.033Z,2220.00
2023-01-29T11:21:18.647Z,2259.00
2023-01-29T11:22:19.371Z,2349.00
2023-01-29T11:23:19.530Z,2342.00
2023-01-29T11:24:19.439Z,2358.00
2023-01-29T11:25:18.674Z,2463.00
2023-01-29T11:26:18.761Z,2499.00
2023-01-29T11:27:19.397Z,2504.00
2023-01-29T11:28:19.306Z,2535.00
2023-01-29T11:29:19.049Z,2558.00
2023-01-29T11:30:19.696Z,2486.00
2023-01-29T11:31:19.358Z,2436.00
2023-01-29T11:32:19.428Z,2466.00
2023-01-29T11:33:19.335Z,2412.00
2023-01-29T11:34:19.364Z,2381.00
2023-01-29T11:35:19.426Z,2398.00
2023-01-29T11:36:19.397Z,2370.00
2023-01-29T11:37:18.500Z,2238.00
2023-01-29T11:38:18.563Z,2267.00
2023-01-29T11:39:18.622Z,2388.00
2023-01-29T11:40:19.030Z,2353.00
2023-01-29T11:41:18.753Z,2020.00
2023-01-29T11:42:18.517Z,2112.00
2023-01-29T11:43:18.871Z,2211.00
2023-01-29T11:44:20.178Z,2322.00
2023-01-29T11:45:18.956Z,2332.00
2023-01-29T11:46:19.016Z,2416.00
2023-01-29T11:47:19.013Z,2439.00
2023-01-29T11:48:18.874Z,2419.00
2023-01-29T11:49:20.973Z,2433.00
2023-01-29T11:50:19.035Z,2446.00
2023-01-29T11:51:19.037Z,2441.00
2023-01-29T11:52:19.042Z,2439.00
2023-01-29T11:53:19.043Z,2303.00
2023-01-29T11:54:19.123Z,2484.00
2023-01-29T11:55:18.637Z,2448.00
2023-01-29T11:56:19.322Z,2553.00
2023-01-29T11:57:19.417Z,2447.00
2023-01-29T11:58:19.022Z,2366.00
2023-01-29T11:59:19.143Z,2505.00
2023-01-29T12:00:19.524Z,2634.00
2023-01-29T12:01:19.134Z,2324.00
2023-01-29T12:02:19.035Z,2428.00
2023-01-29T12:03:19.092Z,2536.00
2023-01-29T12:04:18.357Z,2474.00
2023-01-29T12:05:18.824Z,2420.00
2023-01-29T12:06:18.271Z,2568.00
2023-01-29T12:07:18.194Z,2589.00
2023-01-29T12:08:18.228Z,2564.00
2023-01-29T12:09:18.315Z,2574.00
2023-01-29T12:10:18.735Z,2626.00
2023-01-29T12:11:18.432Z,2628.00
2023-01-29T12:12:18.008Z,2623.00
2023-01-29T12:13:18.420Z,2592.00
2023-01-29T12:14:18.152Z,2600.00
2023-01-29T12:15:18.517Z,2596.00
2023-01-29T12:16:18.821Z,2518.00
2023-01-29T12:17:18.255Z,2477.00
2023-01-29T12:18:18.031Z,2489.00
2023-01-29T12:19:18.818Z,2561.00
2023-01-29T12:20:18.571Z,2499.00
2023-01-29T12:21:17.936Z,2503.00
2023-01-29T12:22:18.791Z,2511.00
2023-01-29T12:23:18.925Z,2575.00
2023-01-29T12:24:18.459Z,2667.00
2023-01-29T12:25:18.405Z,2477.00
2023-01-29T12:26:18.222Z,2283.00
2023-01-29T12:27:17.834Z,2288.00
2023-01-29T12:28:17.870Z,2239.00
2023-01-29T12:29:17.920Z,2194.00
2023-01-29T12:30:19.272Z,2214.00
2023-01-29T12:31:17.876Z,2239.00
2023-01-29T12:32:18.021Z,2289.00
2023-01-29T12:33:18.088Z,2220.00
2023-01-29T12:34:18.696Z,2223.00
2023-01-29T12:35:18.544Z,2271.00
2023-01-29T12:36:23.315Z,2321.00
2023-01-29T12:37:17.737Z,2300.00
2023-01-29T12:38:17.802Z,2300.00
2023-01-29T12:39:17.789Z,2265.00
2023-01-29T12:40:18.133Z,2225.00
2023-01-29T12:41:17.905Z,2157.00
2023-01-29T12:42:17.928Z,2137.00
2023-01-29T12:43:17.637Z,2098.00
2023-01-29T12:44:18.109Z,2027.00
2023-01-29T12:45:18.127Z,1955.00
2023-01-29T12:46:18.206Z,1933.00
2023-01-29T12:47:17.583Z,2036.00
2023-01-29T12:48:17.606Z,1938.00